Time;durP1;ratioP1;P1;durP2;ratioP2;P2;SDS_P1;SDS_P2;PMS_P1;PMS_P2;Temp;Humidity;BMP_temperature;BMP_pressure;BME280_temperature;BME280_humidity;BME280_pressure;Samples;Min_cycle;Max_cycle;Signal;HPM_P1;HPM_P2
2023/01/14 00:00:22;;;;;;;20.63;3.53;;;9.10;99.90;;;;;;5067067;28;20082;-69
2023/01/14 00:02:48;;;;;;;21.42;3.03;;;9.00;99.90;;;;;;5060615;28;20029;-68
2023/01/14 00:05:14;;;;;;;20.95;2.70;;;8.90;99.90;;;;;;5061863;28;20043;-69
2023/01/14 00:07:39;;;;;;;21.65;2.90;;;8.90;99.90;;;;;;5058053;28;20027;-68
2023/01/14 00:10:05;;;;;;;20.77;2.92;;;8.80;99.90;;;;;;5055384;28;20094;-68
2023/01/14 00:12:31;;;;;;;16.40;2.58;;;8.70;99.90;;;;;;5065902;28;20416;-67
2023/01/14 00:14:57;;;;;;;21.25;3.13;;;8.70;99.90;;;;;;5060336;28;20067;-68
2023/01/14 00:17:23;;;;;;;19.45;3.33;;;8.70;99.90;;;;;;5070167;28;20079;-68
2023/01/14 00:19:49;;;;;;;22.73;2.95;;;8.70;99.90;;;;;;5055406;28;20033;-67
2023/01/14 00:22:15;;;;;;;18.20;2.70;;;8.60;99.90;;;;;;5067843;28;20047;-68
2023/01/14 00:24:40;;;;;;;18.70;3.10;;;8.60;99.90;;;;;;5059698;28;20115;-68
2023/01/14 00:27:06;;;;;;;19.88;3.40;;;8.60;99.90;;;;;;5061164;28;20029;-67
2023/01/14 00:29:34;;;;;;;22.75;3.08;;;8.60;99.90;;;;;;5066588;28;20028;-68
2023/01/14 00:32:05;;;;;;;31.67;3.35;;;8.50;99.90;;;;;;5071074;28;20025;-68
2023/01/14 00:34:32;;;;;;;27.10;3.47;;;8.50;99.90;;;;;;5064493;28;20037;-68
2023/01/14 00:36:58;;;;;;;24.00;3.50;;;8.50;99.90;;;;;;5061261;28;20609;-67
2023/01/14 00:39:24;;;;;;;22.35;3.08;;;8.50;99.90;;;;;;5065201;28;20456;-69
2023/01/14 00:41:50;;;;;;;16.85;2.58;;;8.50;99.90;;;;;;5059136;28;20050;-69
2023/01/14 00:44:17;;;;;;;21.83;3.90;;;8.50;99.90;;;;;;5068024;28;20033;-69
2023/01/14 00:46:42;;;;;;;15.05;3.22;;;8.50;99.90;;;;;;5059477;28;20025;-69
2023/01/14 00:49:17;;;;;;;21.30;3.17;;;8.50;99.90;;;;;;5069945;28;20023;-69
2023/01/14 00:51:43;;;;;;;23.85;3.63;;;8.50;99.90;;;;;;5055633;28;20029;-67
2023/01/14 00:54:09;;;;;;;20.70;2.60;;;8.50;99.90;;;;;;5070986;28;20032;-67
2023/01/14 00:56:34;;;;;;;17.15;3.05;;;8.50;99.90;;;;;;5070918;28;20028;-68
2023/01/14 00:59:00;;;;;;;23.35;3.75;;;8.50;99.90;;;;;;5071370;28;20031;-69
2023/01/14 01:01:26;;;;;;;16.05;2.60;;;8.50;99.90;;;;;;5052275;28;20047;-68
2023/01/14 01:03:54;;;;;;;22.75;3.13;;;8.50;99.90;;;;;;5053840;28;20380;-69
2023/01/14 01:06:22;;;;;;;21.83;3.50;;;8.50;99.90;;;;;;5069689;28;20408;-69
2023/01/14 01:08:49;;;;;;;20.02;2.88;;;8.50;99.90;;;;;;5071537;28;20021;-68
2023/01/14 01:11:15;;;;;;;17.85;3.20;;;8.40;99.90;;;;;;5063099;28;20037;-68
2023/01/14 01:13:41;;;;;;;18.85;2.97;;;8.40;99.90;;;;;;5070908;28;20028;-66
2023/01/14 01:16:14;;;;;;;23.73;3.53;;;8.40;99.90;;;;;;5058565;28;20391;-69
2023/01/14 01:18:41;;;;;;;17.27;3.22;;;8.30;99.90;;;;;;5067346;28;20029;-67
2023/01/14 01:21:12;;;;;;;23.25;3.05;;;8.30;99.90;;;;;;5066027;28;20127;-67
2023/01/14 01:23:40;;;;;;;22.85;3.35;;;8.30;99.90;;;;;;5057235;28;20035;-69
2023/01/14 01:26:07;;;;;;;18.73;3.45;;;8.30;99.90;;;;;;5058499;28;20021;-67
2023/01/14 01:28:34;;;;;;;25.30;3.45;;;8.20;99.90;;;;;;5068709;28;20024;-69
2023/01/14 01:31:09;;;;;;;21.70;3.55;;;8.30;99.90;;;;;;5065140;28;20032;-69
2023/01/14 01:33:35;;;;;;;25.98;3.05;;;8.20;99.90;;;;;;5081066;28;20039;-67
2023/01/14 01:36:06;;;;;;;23.33;3.53;;;8.20;99.90;;;;;;5058333;28;20115;-69
2023/01/14 01:38:32;;;;;;;27.35;4.25;;;8.20;99.90;;;;;;5074649;28;20025;-69
2023/01/14 01:40:58;;;;;;;23.55;3.55;;;8.20;99.90;;;;;;5064677;28;20354;-69
2023/01/14 01:43:26;;;;;;;20.60;3.33;;;8.20;99.90;;;;;;5068159;28;20495;-69
2023/01/14 01:45:53;;;;;;;23.75;3.15;;;8.10;99.90;;;;;;5058090;28;20033;-69
2023/01/14 01:48:22;;;;;;;22.95;5.47;;;8.10;99.90;;;;;;5070209;28;20108;-68
2023/01/14 01:50:52;;;;;;;20.30;3.22;;;8.10;99.90;;;;;;5063262;28;20024;-69
2023/01/14 01:53:19;;;;;;;26.83;4.07;;;8.00;99.90;;;;;;5064298;28;20044;-68
2023/01/14 01:55:50;;;;;;;19.98;3.35;;;8.00;99.90;;;;;;5074577;28;20037;-68
2023/01/14 01:58:16;;;;;;;25.98;4.47;;;8.00;99.90;;;;;;5058695;28;20120;-68
2023/01/14 02:00:42;;;;;;;23.90;3.97;;;8.00;99.90;;;;;;5066541;28;20076;-67
2023/01/14 02:03:17;;;;;;;27.15;4.32;;;8.00;99.90;;;;;;5065740;28;20067;-69
2023/01/14 02:05:43;;;;;;;27.65;4.38;;;8.00;99.90;;;;;;5062939;28;20029;-68
2023/01/14 02:08:09;;;;;;;20.38;3.78;;;8.00;99.90;;;;;;5071233;28;20029;-70
2023/01/14 02:11:05;;;;;;;26.02;4.75;;;8.00;99.90;;;;;;5060777;28;20028;-70
2023/01/14 02:13:39;;;;;;;27.70;4.32;;;8.00;99.90;;;;;;5059774;28;20032;-69
2023/01/14 02:16:21;;;;;;;27.77;4.93;;;8.00;99.90;;;;;;5067997;28;20059;-70
2023/01/14 02:19:14;;;;;;;;;;;8.00;99.90;;;;;;5066352;28;20060;-70
2023/01/14 02:22:00;;;;;;;26.25;3.72;;;7.90;99.90;;;;;;5071398;28;20317;-69
2023/01/14 02:24:58;;;;;;;19.95;3.38;;;7.90;99.90;;;;;;5059492;28;20030;-69
2023/01/14 02:27:36;;;;;;;32.25;4.78;;;7.90;99.90;;;;;;5066246;28;20032;-69
2023/01/14 02:30:36;;;;;;;22.27;3.72;;;7.90;99.90;;;;;;5062883;28;20036;-69
2023/01/14 02:33:38;;;;;;;23.80;4.72;;;7.80;99.90;;;;;;5063427;28;20037;-69
2023/01/14 02:36:28;;;;;;;20.75;3.40;;;7.80;99.90;;;;;;5057206;28;20059;-68
2023/01/14 02:39:18;;;;;;;19.73;3.13;;;7.80;99.90;;;;;;5064486;28;20025;-69
2023/01/14 02:44:46;;;;;;;31.88;3.55;;;7.80;99.90;;;;;;5060962;28;20405;-69
2023/01/14 02:47:25;;;;;;;25.90;3.95;;;7.80;99.90;;;;;;5055251;28;20097;-68
2023/01/14 02:49:54;;;;;;;27.50;3.15;;;7.80;99.90;;;;;;5056748;28;20033;-70
2023/01/14 02:52:20;;;;;;;23.10;3.35;;;7.80;99.90;;;;;;5068242;28;20540;-69
2023/01/14 02:54:53;;;;;;;21.38;3.65;;;7.80;99.90;;;;;;5061915;28;20028;-68
2023/01/14 02:57:38;;;;;;;24.33;3.50;;;7.80;99.90;;;;;;5078323;28;20115;-70
2023/01/14 03:00:35;;;;;;;13.65;3.03;;;7.80;99.90;;;;;;5056910;28;20068;-68
2023/01/14 03:03:03;;;;;;;20.02;3.25;;;7.80;99.90;;;;;;5061149;28;20033;-69
2023/01/14 03:05:42;;;;;;;23.35;4.22;;;7.70;99.90;;;;;;5067639;28;20044;-69
2023/01/14 03:08:29;;;;;;;24.42;3.47;;;7.70;99.90;;;;;;5056466;28;20025;-69
2023/01/14 03:11:07;;;;;;;21.77;3.10;;;7.70;99.90;;;;;;5063424;28;20032;-69
2023/01/14 03:13:50;;;;;;;21.13;3.33;;;7.60;99.90;;;;;;5067894;28;20025;-69
2023/01/14 03:16:39;;;;;;;15.43;2.38;;;7.60;99.90;;;;;;5057045;28;20464;-69
2023/01/14 03:19:14;;;;;;;22.83;3.47;;;7.60;99.90;;;;;;5061897;28;20381;-69
2023/01/14 03:21:53;;;;;;;24.08;2.75;;;7.60;99.90;;;;;;5068786;28;20048;-68
2023/01/14 03:24:35;;;;;;;16.50;2.75;;;7.60;99.90;;;;;;5057628;28;20035;-69
2023/01/14 03:27:06;;;;;;;18.40;3.92;;;7.60;99.90;;;;;;5062634;28;20354;-69
2023/01/14 03:29:42;;;;;;;21.33;2.77;;;7.50;99.90;;;;;;5067560;28;20453;-69
2023/01/14 03:32:31;;;;;;;18.65;3.63;;;7.50;99.90;;;;;;5055522;28;20095;-69
2023/01/14 03:35:21;;;;;;;20.77;3.35;;;7.50;99.90;;;;;;5062662;28;20465;-68
2023/01/14 03:37:56;;;;;;;21.77;3.38;;;7.40;99.90;;;;;;5062349;28;20024;-69
2023/01/14 03:40:25;;;;;;;21.15;3.42;;;7.40;99.90;;;;;;5052344;28;20112;-69
2023/01/14 03:42:55;;;;;;;18.75;3.67;;;7.30;99.90;;;;;;5061745;28;20024;-69
2023/01/14 03:45:32;;;;;;;22.15;5.03;;;7.30;99.90;;;;;;5063763;28;20047;-69
2023/01/14 03:47:58;;;;;;;17.08;3.60;;;7.30;99.90;;;;;;5068822;28;20344;-69
2023/01/14 03:50:30;;;;;;;19.15;2.95;;;7.30;99.90;;;;;;5039921;28;20043;-68
2023/01/14 03:53:20;;;;;;;18.13;2.40;;;7.30;99.90;;;;;;5063166;28;20060;-69
2023/01/14 03:56:33;;;;;;;15.70;3.60;;;7.30;99.90;;;;;;5069051;28;20036;-69
2023/01/14 03:59:11;;;;;;;19.30;2.60;;;7.30;99.90;;;;;;5056128;28;20068;-69
2023/01/14 04:01:49;;;;;;;30.67;3.75;;;7.30;99.90;;;;;;5057074;28;20064;-69
2023/01/14 04:04:16;;;;;;;19.23;2.85;;;7.30;99.90;;;;;;5056412;28;20067;-68
2023/01/14 04:06:42;;;;;;;24.88;3.10;;;7.30;99.90;;;;;;5064643;28;20035;-69
2023/01/14 04:09:08;;;;;;;21.73;3.65;;;7.30;99.90;;;;;;5063056;28;20036;-70
2023/01/14 04:11:35;;;;;;;17.98;3.78;;;7.30;99.90;;;;;;5057042;28;20033;-68
2023/01/14 04:16:44;;;;;;;22.13;3.90;;;7.30;99.90;;;;;;5060060;28;20059;-69
2023/01/14 04:19:10;;;;;;;19.38;3.28;;;7.30;99.90;;;;;;5060731;28;20108;-69
2023/01/14 04:21:36;;;;;;;16.67;2.35;;;7.30;99.90;;;;;;5067203;28;20075;-69
2023/01/14 04:24:01;;;;;;;21.77;3.40;;;7.30;99.90;;;;;;5055058;28;20040;-69
2023/01/14 04:26:28;;;;;;;19.05;3.17;;;7.30;99.90;;;;;;5066461;28;20025;-69
2023/01/14 04:28:54;;;;;;;22.33;3.17;;;7.30;99.90;;;;;;5043622;28;20384;-69
2023/01/14 04:31:19;;;;;;;17.90;2.88;;;7.30;99.90;;;;;;5058937;28;20025;-69
2023/01/14 04:33:45;;;;;;;18.17;3.13;;;7.30;99.90;;;;;;5068646;28;20521;-69
2023/01/14 04:36:11;;;;;;;22.92;3.80;;;7.30;99.90;;;;;;5055351;28;20032;-69
2023/01/14 04:38:36;;;;;;;22.42;3.58;;;7.20;99.90;;;;;;5064414;28;20029;-69
2023/01/14 04:41:02;;;;;;;30.38;5.40;;;7.20;99.90;;;;;;5062375;28;20522;-69
2023/01/14 04:43:27;;;;;;;22.67;2.78;;;7.20;99.90;;;;;;5058587;28;20381;-67
2023/01/14 04:45:54;;;;;;;18.60;3.38;;;7.20;99.90;;;;;;5072409;28;20380;-69
2023/01/14 04:48:21;;;;;;;16.15;3.20;;;7.20;99.90;;;;;;5060341;28;20031;-68
2023/01/14 04:50:47;;;;;;;20.88;3.13;;;7.20;99.90;;;;;;5067268;28;20029;-69
2023/01/14 04:53:16;;;;;;;23.83;3.05;;;7.20;99.90;;;;;;5056687;28;20159;-68
2023/01/14 04:55:43;;;;;;;21.27;3.35;;;7.20;99.90;;;;;;5079525;28;20024;-69
2023/01/14 04:58:12;;;;;;;18.88;2.70;;;7.20;99.90;;;;;;5093298;28;20027;-69
2023/01/14 05:00:38;;;;;;;9.75;2.53;;;7.20;99.90;;;;;;5055750;28;20197;-69
2023/01/14 05:03:06;;;;;;;11.35;2.45;;;7.20;99.90;;;;;;5055242;28;20044;-68
2023/01/14 05:05:31;;;;;;;23.27;3.35;;;7.20;99.90;;;;;;5055624;28;20025;-69
2023/01/14 05:07:58;;;;;;;18.27;3.33;;;7.20;99.90;;;;;;5055988;28;20130;-69
2023/01/14 05:10:23;;;;;;;22.25;3.50;;;7.20;99.90;;;;;;5055818;28;20477;-69
2023/01/14 05:12:58;;;;;;;24.10;4.35;;;7.30;99.90;;;;;;5055907;28;20043;-69
2023/01/14 05:15:38;;;;;;;20.88;3.45;;;7.30;99.90;;;;;;5056108;28;20029;-69
2023/01/14 05:18:06;;;;;;;25.88;5.13;;;7.30;99.90;;;;;;5073973;28;20024;-68
2023/01/14 05:20:31;;;;;;;27.73;4.63;;;7.20;99.90;;;;;;5075255;28;20058;-68
2023/01/14 05:23:00;;;;;;;23.05;3.70;;;7.30;99.90;;;;;;5063317;28;20036;-68
2023/01/14 05:25:27;;;;;;;19.02;6.95;;;7.20;99.90;;;;;;5071602;28;20085;-69
2023/01/14 05:27:53;;;;;;;19.70;3.97;;;7.30;99.90;;;;;;5058583;28;20021;-68
2023/01/14 05:30:19;;;;;;;32.45;4.78;;;7.30;99.90;;;;;;5073303;28;20380;-69
2023/01/14 05:32:44;;;;;;;15.18;3.85;;;7.30;99.90;;;;;;5075326;28;20416;-70
2023/01/14 05:35:10;;;;;;;20.02;3.00;;;7.30;99.90;;;;;;5061267;28;20029;-69
2023/01/14 05:37:35;;;;;;;24.15;4.95;;;7.30;99.90;;;;;;5071496;28;20031;-70
2023/01/14 05:40:01;;;;;;;27.38;4.65;;;7.40;99.90;;;;;;5059547;28;20055;-69
2023/01/14 05:47:56;;;;;;;26.77;5.43;;;7.40;99.90;;;;;;5058754;28;20035;-69
2023/01/14 05:50:22;;;;;;;17.40;4.32;;;7.50;99.90;;;;;;5073690;28;20025;-69
2023/01/14 05:52:47;;;;;;;23.30;3.85;;;7.50;99.90;;;;;;5063683;28;20031;-69
2023/01/14 05:55:13;;;;;;;17.17;4.10;;;7.50;99.90;;;;;;5071929;28;20037;-69
2023/01/14 05:57:39;;;;;;;22.33;3.70;;;7.40;99.90;;;;;;5057647;28;20037;-68
2023/01/14 06:00:05;;;;;;;21.25;4.10;;;7.40;99.90;;;;;;5088488;28;20035;-69
2023/01/14 06:08:01;;;;;;;23.35;3.78;;;7.40;99.90;;;;;;5058311;28;20490;-68
2023/01/14 06:10:27;;;;;;;20.73;3.88;;;7.40;99.90;;;;;;5066560;28;20055;-69
2023/01/14 06:13:01;;;;;;;26.83;5.75;;;7.40;99.90;;;;;;5066056;28;20372;-68
2023/01/14 06:15:39;;;;;;;19.95;3.47;;;7.40;99.90;;;;;;5058034;28;20380;-69
2023/01/14 06:18:09;;;;;;;19.15;3.10;;;7.40;99.90;;;;;;5059491;28;20024;-69
2023/01/14 06:20:38;;;;;;;20.65;4.28;;;7.40;99.90;;;;;;5064933;28;20029;-69
2023/01/14 06:23:05;;;;;;;17.85;2.85;;;7.40;99.90;;;;;;5067358;28;20464;-70
2023/01/14 06:25:31;;;;;;;20.80;3.40;;;7.40;99.90;;;;;;5057725;28;20090;-70
2023/01/14 06:27:59;;;;;;;25.38;3.70;;;7.30;99.90;;;;;;5070569;28;20025;-70
2023/01/14 06:30:25;;;;;;;18.75;3.80;;;7.30;99.90;;;;;;5068904;28;20052;-69
2023/01/14 06:32:50;;;;;;;25.67;3.72;;;7.30;99.90;;;;;;5073113;28;20043;-71
2023/01/14 06:35:16;;;;;;;10.68;2.33;;;7.30;99.90;;;;;;5074327;28;20032;-71
2023/01/14 06:37:45;;;;;;;17.90;2.88;;;7.30;99.90;;;;;;5074296;28;20020;-71
2023/01/14 06:40:12;;;;;;;15.43;3.05;;;7.30;99.90;;;;;;5074278;28;20021;-71
2023/01/14 06:42:40;;;;;;;19.35;3.50;;;7.30;99.90;;;;;;5073511;28;20033;-73
2023/01/14 06:45:07;;;;;;;20.13;4.05;;;7.20;99.90;;;;;;5072498;28;20067;-71
2023/01/14 06:47:33;;;;;;;21.00;3.50;;;7.20;99.90;;;;;;5055495;28;20029;-72
2023/01/14 06:49:59;;;;;;;24.45;3.65;;;7.20;99.90;;;;;;5055664;28;20424;-71
2023/01/14 06:52:24;;;;;;;22.02;4.15;;;7.20;99.90;;;;;;5073660;28;20040;-72
2023/01/14 06:54:51;;;;;;;16.17;3.78;;;7.20;99.90;;;;;;5069562;28;20101;-70
2023/01/14 06:57:17;;;;;;;27.30;3.92;;;7.20;99.90;;;;;;5057221;28;20017;-70
2023/01/14 06:59:43;;;;;;;12.65;2.72;;;7.20;99.90;;;;;;5064331;28;20039;-70
2023/01/14 07:02:12;;;;;;;20.02;3.40;;;7.10;99.90;;;;;;5073581;28;20032;-70
2023/01/14 07:04:38;;;;;;;24.88;3.63;;;7.10;99.90;;;;;;5073876;28;20032;-70
2023/01/14 07:07:04;;;;;;;16.05;2.20;;;7.10;99.90;;;;;;5072151;28;20020;-70
2023/01/14 07:09:30;;;;;;;19.88;3.13;;;7.10;99.90;;;;;;5073197;28;20036;-69
2023/01/14 07:11:55;;;;;;;20.90;4.30;;;7.10;99.90;;;;;;5073343;28;20097;-71
2023/01/14 07:14:21;;;;;;;18.35;2.92;;;7.10;99.90;;;;;;5073349;28;20028;-71
2023/01/14 07:16:46;;;;;;;11.02;2.72;;;7.00;99.90;;;;;;5060871;28;20132;-72
2023/01/14 07:19:12;;;;;;;17.65;3.92;;;7.10;99.90;;;;;;5053067;28;20064;-72
2023/01/14 07:21:38;;;;;;;19.30;4.55;;;7.10;99.90;;;;;;5053349;28;20068;-70
2023/01/14 07:24:05;;;;;;;17.20;3.13;;;7.00;99.90;;;;;;5053006;28;20032;-72
2023/01/14 07:26:30;;;;;;;26.20;3.63;;;7.10;99.90;;;;;;5053402;28;20033;-71
2023/01/14 07:28:56;;;;;;;16.80;3.92;;;7.10;99.90;;;;;;5053370;28;20025;-71
2023/01/14 07:31:21;;;;;;;21.85;3.40;;;7.10;99.90;;;;;;5053368;28;20036;-72
2023/01/14 07:33:47;;;;;;;20.73;3.22;;;7.00;99.90;;;;;;5071954;28;20108;-71
2023/01/14 07:36:13;;;;;;;24.48;4.35;;;7.10;99.90;;;;;;5073069;28;20082;-72
2023/01/14 07:38:38;;;;;;;14.30;3.78;;;7.10;99.90;;;;;;5072755;28;20025;-72
2023/01/14 07:41:11;;;;;;;15.15;3.65;;;7.10;99.90;;;;;;5072606;28;20480;-73
2023/01/14 07:43:37;;;;;;;16.83;3.80;;;7.10;99.90;;;;;;5073182;28;20041;-72
2023/01/14 07:46:03;;;;;;;21.08;4.65;;;7.10;99.90;;;;;;5073159;28;20037;-71
2023/01/14 07:48:29;;;;;;;23.35;4.07;;;7.10;99.90;;;;;;5072848;28;20027;-71
2023/01/14 07:50:55;;;;;;;20.75;4.63;;;7.10;99.90;;;;;;5072956;28;20447;-71
2023/01/14 07:53:21;;;;;;;19.50;4.28;;;7.10;99.90;;;;;;5070209;28;20028;-72
2023/01/14 07:55:46;;;;;;;16.13;3.97;;;7.10;99.90;;;;;;5052323;28;20032;-72
2023/01/14 07:58:14;;;;;;;25.30;5.38;;;7.10;99.90;;;;;;5051178;28;20351;-71
2023/01/14 08:00:39;;;;;;;14.48;4.82;;;7.10;99.90;;;;;;5051617;28;20017;-73
2023/01/14 08:03:05;;;;;;;15.88;4.07;;;7.10;99.90;;;;;;5052802;28;20091;-72
2023/01/14 08:05:33;;;;;;;12.57;3.47;;;7.10;99.90;;;;;;5052779;28;20028;-71
2023/01/14 08:07:59;;;;;;;11.88;3.25;;;7.10;99.90;;;;;;5034725;28;20372;-71
2023/01/14 08:10:24;;;;;;;17.25;5.03;;;7.10;99.90;;;;;;5052540;28;20033;-73
2023/01/14 08:12:50;;;;;;;12.63;4.03;;;7.10;99.90;;;;;;5052687;28;20477;-71
2023/01/14 08:15:16;;;;;;;17.33;4.95;;;7.20;99.90;;;;;;5051665;28;20052;-71
2023/01/14 08:17:41;;;;;;;12.05;4.18;;;7.10;99.90;;;;;;5034726;28;20518;-71
2023/01/14 08:20:09;;;;;;;9.13;3.70;;;7.20;99.90;;;;;;5052432;28;20031;-72
2023/01/14 08:22:35;;;;;;;14.63;4.80;;;7.20;99.90;;;;;;5052597;28;20489;-72
2023/01/14 08:25:00;;;;;;;11.27;4.57;;;7.20;99.90;;;;;;5052514;28;20112;-72
2023/01/14 08:27:27;;;;;;;18.05;4.78;;;7.20;99.90;;;;;;5052629;28;20033;-73
2023/01/14 08:29:52;;;;;;;16.38;4.05;;;7.20;99.90;;;;;;5051945;28;20021;-71
2023/01/14 08:32:18;;;;;;;15.57;5.28;;;7.30;99.90;;;;;;5052213;28;20032;-69
2023/01/14 08:34:44;;;;;;;12.75;4.18;;;7.30;99.90;;;;;;5052046;28;20028;-71
2023/01/14 08:37:09;;;;;;;9.45;4.05;;;7.30;99.90;;;;;;5052320;28;20057;-71
2023/01/14 08:39:35;;;;;;;16.00;4.15;;;7.30;99.90;;;;;;5052298;28;20051;-71
2023/01/14 08:42:00;;;;;;;15.15;5.07;;;7.40;99.90;;;;;;5052072;28;20124;-71
2023/01/14 08:44:26;;;;;;;16.20;3.90;;;7.40;99.90;;;;;;5051597;28;20491;-70
2023/01/14 08:46:51;;;;;;;12.73;4.53;;;7.40;99.90;;;;;;5053689;28;20457;-70
2023/01/14 08:49:17;;;;;;;14.43;3.78;;;7.40;99.90;;;;;;5047023;28;20466;-70
2023/01/14 08:51:43;;;;;;;15.07;4.95;;;7.50;99.90;;;;;;5051486;28;20029;-71
2023/01/14 08:54:08;;;;;;;16.20;4.93;;;7.50;99.90;;;;;;5049977;28;20088;-70
2023/01/14 08:56:34;;;;;;;13.60;5.03;;;7.50;99.90;;;;;;5051771;28;20040;-71
2023/01/14 08:59:01;;;;;;;14.57;5.38;;;7.60;99.90;;;;;;5049895;28;20108;-71
2023/01/14 09:01:26;;;;;;;13.30;5.30;;;7.60;99.90;;;;;;5051837;28;20036;-71
2023/01/14 09:03:53;;;;;;;9.30;3.83;;;7.60;99.90;;;;;;5046076;28;20021;-71
2023/01/14 09:06:18;;;;;;;16.23;5.75;;;7.60;99.90;;;;;;5051301;28;20035;-71
2023/01/14 09:17:09;;;;;;;11.88;4.63;;;7.70;99.90;;;;;;5066306;28;20056;-72
2023/01/14 09:19:40;;;;;;;10.85;4.72;;;7.80;99.90;;;;;;5071662;28;20036;-71
2023/01/14 09:22:06;;;;;;;13.15;4.40;;;7.80;99.90;;;;;;5071808;28;20453;-70
2023/01/14 09:24:32;;;;;;;10.55;4.47;;;7.80;99.90;;;;;;5071782;28;20043;-72
2023/01/14 09:26:57;;;;;;;9.73;3.70;;;7.90;99.90;;;;;;5071702;28;20025;-71
2023/01/14 09:29:23;;;;;;;14.18;4.95;;;7.90;99.90;;;;;;5070876;28;20035;-72
2023/01/14 09:31:49;;;;;;;8.55;3.63;;;7.90;99.90;;;;;;5074577;28;20017;-72
2023/01/14 09:34:14;;;;;;;12.40;4.25;;;7.90;99.90;;;;;;5074897;28;20206;-70
2023/01/14 09:36:40;;;;;;;11.32;3.28;;;8.00;99.90;;;;;;5075129;28;20035;-71
2023/01/14 09:39:06;;;;;;;6.88;3.10;;;8.00;99.90;;;;;;5075020;28;20463;-71
2023/01/14 09:41:39;;;;;;;9.25;3.38;;;8.10;99.90;;;;;;5075142;28;20464;-71
2023/01/14 09:44:06;;;;;;;12.55;3.95;;;8.10;99.90;;;;;;5074797;28;20035;-72
2023/01/14 09:46:33;;;;;;;10.85;3.92;;;8.10;99.90;;;;;;5072280;28;20583;-71
2023/01/14 09:49:01;;;;;;;11.05;4.18;;;8.20;99.90;;;;;;5074706;28;20115;-71
2023/01/14 09:52:06;;;;;;;10.25;3.10;;;8.20;99.90;;;;;;5074870;28;20029;-71
2023/01/14 09:54:32;;;;;;;6.88;2.95;;;8.30;99.90;;;;;;5074406;28;20031;-70
2023/01/14 09:57:09;;;;;;;5.82;2.15;;;8.30;99.90;;;;;;5078149;28;20020;-71
2023/01/14 10:00:02;;;;;;;5.85;2.58;;;8.30;99.90;;;;;;5071767;28;20476;-70
2023/01/14 10:02:40;;;;;;;;;;;8.30;99.90;;;;;;5066993;28;20039;-70
2023/01/14 10:05:22;;;;;;;9.40;2.78;;;8.40;99.90;;;;;;5095182;28;19908;-71
2023/01/14 10:07:49;;;;;;;8.75;2.85;;;8.40;99.90;;;;;;5074293;28;20134;-71
2023/01/14 10:10:20;;;;;;;9.80;3.10;;;8.40;99.90;;;;;;5063831;28;20129;-71
2023/01/14 10:12:47;;;;;;;9.18;3.38;;;8.40;99.90;;;;;;5054359;28;20017;-71
2023/01/14 10:15:46;;;;;;;6.78;2.22;;;8.50;99.90;;;;;;5069818;28;20032;-71
2023/01/14 10:18:16;;;;;;;7.40;2.45;;;8.50;99.90;;;;;;5036242;28;20068;-71
2023/01/14 10:20:50;;;;;;;8.57;3.20;;;8.50;99.90;;;;;;5054418;28;20082;-71
2023/01/14 10:23:20;;;;;;;7.57;2.20;;;8.50;99.90;;;;;;5054241;28;20025;-71
2023/01/14 10:25:53;;;;;;;7.78;2.42;;;8.60;99.90;;;;;;5054739;28;20063;-72
2023/01/14 10:28:27;;;;;;;6.40;2.95;;;8.60;99.90;;;;;;5054336;28;20111;-70
2023/01/14 10:30:53;;;;;;;7.03;2.40;;;8.60;99.90;;;;;;5054052;28;20043;-71
2023/01/14 10:33:21;;;;;;;8.63;2.88;;;8.70;99.90;;;;;;5053390;28;20047;-71
2023/01/14 10:35:54;;;;;;;10.43;2.63;;;8.70;99.90;;;;;;5054380;28;20028;-71
2023/01/14 10:38:23;;;;;;;7.68;1.73;;;8.70;99.90;;;;;;5054283;28;20473;-71
2023/01/14 10:40:51;;;;;;;5.18;2.45;;;8.70;99.90;;;;;;5053735;28;20033;-70
2023/01/14 10:43:33;;;;;;;9.00;2.40;;;8.80;99.90;;;;;;5053745;28;20068;-71
2023/01/14 10:46:00;;;;;;;6.72;2.47;;;8.80;99.90;;;;;;5054343;28;20029;-70
2023/01/14 10:48:28;;;;;;;5.90;2.42;;;8.90;99.90;;;;;;5053975;28;20032;-70
2023/01/14 10:50:54;;;;;;;5.38;1.70;;;8.90;99.90;;;;;;5054126;28;20137;-71
2023/01/14 10:53:24;;;;;;;7.47;1.90;;;8.90;99.90;;;;;;5055706;28;20524;-70
2023/01/14 10:55:55;;;;;;;4.38;1.58;;;9.00;99.90;;;;;;5073968;28;20037;-71
2023/01/14 10:58:34;;;;;;;2.53;1.70;;;9.00;99.90;;;;;;5087890;28;20024;-70
2023/01/14 11:01:05;;;;;;;3.95;2.05;;;9.00;99.90;;;;;;5056206;28;20082;-70
2023/01/14 11:03:48;;;;;;;5.80;2.25;;;9.10;99.90;;;;;;5054060;28;20044;-71
2023/01/14 11:06:16;;;;;;;12.60;3.03;;;9.10;99.90;;;;;;5054024;28;20033;-70
2023/01/14 11:08:50;;;;;;;2.75;1.80;;;9.10;99.90;;;;;;5056136;28;21174;-71
2023/01/14 11:11:22;;;;;;;4.53;1.95;;;9.20;99.90;;;;;;5080481;28;20035;-71
2023/01/14 11:13:50;;;;;;;;;;;9.20;99.90;;;;;;5053628;28;20056;-71
2023/01/14 11:16:25;;;;;;;4.93;1.80;;;9.20;99.90;;;;;;5053898;28;19924;-71
2023/01/14 11:19:16;;;;;;;3.88;1.73;;;9.20;99.90;;;;;;5053333;28;20029;-71
2023/01/14 11:21:44;;;;;;;3.90;2.20;;;9.30;99.90;;;;;;5053149;28;20063;-70
2023/01/14 11:24:35;;;;;;;2.50;1.75;;;9.30;99.90;;;;;;5053185;28;20064;-71
2023/01/14 11:27:04;;;;;;;4.50;1.92;;;9.40;99.90;;;;;;5052847;28;20036;-72
2023/01/14 11:29:32;;;;;;;3.65;1.52;;;9.40;99.90;;;;;;5053457;28;20468;-70
2023/01/14 11:32:11;;;;;;;6.95;2.20;;;9.50;99.90;;;;;;5052979;28;20025;-71
2023/01/14 11:34:57;;;;;;;3.00;1.45;;;9.60;99.90;;;;;;5052774;28;20025;-70
2023/01/14 11:37:29;;;;;;;7.07;1.80;;;9.60;99.90;;;;;;5052940;28;20021;-71
2023/01/14 11:40:01;;;;;;;5.43;1.75;;;9.60;99.90;;;;;;5053736;28;20031;-71
2023/01/14 11:42:34;;;;;;;8.10;2.40;;;9.70;99.90;;;;;;5052642;28;20040;-71
2023/01/14 11:45:14;;;;;;;4.15;1.58;;;9.80;99.90;;;;;;5072552;28;20036;-71
2023/01/14 11:47:47;;;;;;;5.50;1.83;;;9.80;99.90;;;;;;5072820;28;20031;-71
2023/01/14 11:50:20;;;;;;;4.07;1.90;;;9.90;99.90;;;;;;5073275;28;20514;-71
2023/01/14 11:53:00;;;;;;;1.70;1.48;;;9.80;99.90;;;;;;5071785;28;20021;-71
2023/01/14 11:55:28;;;;;;;3.15;1.90;;;9.90;99.90;;;;;;5052843;28;20036;-71
2023/01/14 11:57:58;;;;;;;5.43;1.77;;;9.90;99.90;;;;;;5052640;28;20047;-70
2023/01/14 12:00:24;;;;;;;5.90;2.00;;;10.00;99.90;;;;;;5052477;28;20033;-71
2023/01/14 12:02:57;;;;;;;7.35;1.92;;;10.00;99.90;;;;;;5052683;28;20365;-71
2023/01/14 12:05:24;;;;;;;6.53;2.28;;;10.10;99.90;;;;;;5052522;28;20108;-70
2023/01/14 12:07:56;;;;;;;2.95;1.65;;;10.10;99.90;;;;;;5052697;28;20064;-71
2023/01/14 12:10:30;;;;;;;4.13;1.52;;;10.10;99.90;;;;;;5052684;28;20083;-72
2023/01/14 12:19:10;;;;;;;4.68;1.67;;;10.20;99.90;;;;;;5092887;28;20026;-71
2023/01/14 12:21:43;;;;;;;2.75;1.58;;;10.30;99.90;;;;;;5092721;28;20133;-72
2023/01/14 12:24:24;;;;;;;7.32;2.20;;;10.30;99.90;;;;;;5082750;28;20513;-71
2023/01/14 12:26:54;;;;;;;11.70;2.50;;;10.40;99.90;;;;;;5073005;28;20036;-71
2023/01/14 12:29:26;;;;;;;5.18;1.80;;;10.40;99.90;;;;;;5072334;28;20064;-72
2023/01/14 12:32:25;;;;;;;7.30;2.38;;;10.40;99.90;;;;;;5068668;28;20025;-72
2023/01/14 12:34:56;;;;;;;3.00;1.55;;;10.50;99.90;;;;;;5064025;28;20032;-71
2023/01/14 12:37:27;;;;;;;4.72;1.50;;;10.50;99.90;;;;;;5057202;28;20028;-72
2023/01/14 12:45:55;;;;;;;7.95;1.50;;;10.50;99.90;;;;;;5029902;28;20157;-71
2023/01/14 12:48:24;;;;;;;6.00;2.25;;;10.50;99.90;;;;;;5058563;28;20495;-71
2023/01/14 12:50:53;;;;;;;2.80;1.20;;;10.60;99.90;;;;;;5051346;28;20537;-71
2023/01/14 12:53:24;;;;;;;3.38;1.23;;;10.60;99.90;;;;;;5052100;28;20025;-71
2023/01/14 12:55:52;;;;;;;4.80;2.00;;;10.60;99.90;;;;;;5049771;28;20036;-72
2023/01/14 12:58:23;;;;;;;2.72;1.13;;;10.60;99.90;;;;;;5071421;28;20025;-71
2023/01/14 13:00:55;;;;;;;4.72;1.83;;;10.70;99.90;;;;;;5068199;28;20033;-72
2023/01/14 13:03:26;;;;;;;2.55;1.33;;;10.70;99.90;;;;;;5052127;28;20040;-71
2023/01/14 13:05:53;;;;;;;5.85;2.10;;;10.70;99.90;;;;;;5057743;28;20032;-72
2023/01/14 13:08:26;;;;;;;4.90;1.50;;;10.70;99.90;;;;;;5076293;28;20033;-72
2023/01/14 13:11:04;;;;;;;6.57;1.85;;;10.70;99.90;;;;;;5075729;28;20464;-70
2023/01/14 13:13:34;;;;;;;4.22;1.80;;;10.70;99.90;;;;;;5072693;28;20059;-71
2023/01/14 13:16:02;;;;;;;5.47;1.80;;;10.80;99.90;;;;;;5064197;28;20037;-71
2023/01/14 13:18:34;;;;;;;1.48;1.13;;;10.80;99.90;;;;;;5073269;28;20033;-70
2023/01/14 13:21:04;;;;;;;4.10;1.70;;;10.80;99.90;;;;;;5068809;28;20461;-71
2023/01/14 13:23:36;;;;;;;4.07;1.58;;;10.80;99.90;;;;;;5037636;28;20037;-71
2023/01/14 13:26:17;;;;;;;7.43;2.42;;;10.80;99.90;;;;;;5055420;28;20029;-70
2023/01/14 13:29:16;;;;;;;1.47;0.90;;;10.90;99.90;;;;;;5055545;28;20108;-71
2023/01/14 13:31:43;;;;;;;2.85;1.50;;;10.90;99.90;;;;;;5055815;28;20266;-72
2023/01/14 13:34:21;;;;;;;2.13;1.30;;;10.90;99.90;;;;;;5055473;28;20048;-71
2023/01/14 13:37:04;;;;;;;2.20;1.60;;;11.00;99.90;;;;;;5055595;28;20021;-70
2023/01/14 13:39:32;;;;;;;3.20;1.10;;;11.00;99.90;;;;;;5055411;28;20167;-69
2023/01/14 13:42:32;;;;;;;4.40;1.35;;;11.00;99.90;;;;;;5075106;28;20079;-71
2023/01/14 13:44:59;;;;;;;1.92;1.27;;;11.10;99.90;;;;;;5075105;28;20028;-71